Axtell, KS (66403)

6:13 PM CST on February 08, 2016 (GMT -0600)
Brenner | | Change Station
CLOSE
Current Station
Airport
Location: Falls City,
Elevation: 984 ft
Nearby Weather Stations

Elev 984 ft 40.08 °N, 95.59 °W | Updated 20 minutes ago

Partly Cloudy
Partly Cloudy
31 °F
Feels Like 21 °F
N
14
Wind Variable Wind from NNW
Gusts 23 mph

Today
High -- | Low -- °F
--% Chance of Precip.
Yesterday
High -- | Low -- °F
Precip. -- in
Pressure 30.14 in
Visibility 10.0 miles
Clouds Clear
Windchill 21 °F
Dew Point 17 °F
Humidity 57%
Rainfall 0.00 in
Snow Depth Not available.
7:26 AM 5:52 PM
New Moon, 0% visible
METAR KFNB 082353Z AUTO 33012G20KT 10SM CLR M01/M08 A3011 RMK AO2 PK WND 32026/2259 SLP204 60000 T10061083 10006 21006 51006
Pressure 30.14 in
Visibility 10.0 miles
Clouds Clear
Windchill 21 °F
Dew Point 17 °F
Humidity 57%
Rainfall 0.00 in
Snow Depth Not available.
7:26 AM 5:52 PM
New Moon, 0% visible
METAR KFNB 082353Z AUTO 33012G20KT 10SM CLR M01/M08 A3011 RMK AO2 PK WND 32026/2259 SLP204 60000 T10061083 10006 21006 51006

10-Day Weather Forecast

Almanac

Astronomy

Feb. 08, 2016 Rise Set
Actual Time
Civil Twilight
Nautical Twilight
Astronomical Twilight
Moon
Length of Visible Light
Length of Day
Tomorrow will be .
, % of the Moon is Illuminated

Today's Extremes

State Highs State Lows

Community

WunderPhotos

Upload Photos

1,891,527 photos uploaded!

WunderBlog® & News

Nearby

Air Quality

  Air Quality AQ Index Pollutant
Not available.

Snow Depth

Station Depth Elevation

Earthquake Activity

City Distance Mag. Time & Date
Minimum magnitude displayed is 2.5.

Coastal Water Temperatures

Place Temperature

Stations

Nearby Weather Stations

Station Location Temp. Windchill Dew Point Humidity Wind Precip. Elev Updated Type
                   

Watches & Warnings

There are currently no watches in effect.